sensor_id;sensor_type;location;lat;lon;timestamp;temperature;humidity
7792;DHT22;3940;49.892;10.886;2022-09-09T00:00:34;16.30;99.90
7792;DHT22;3940;49.892;10.886;2022-09-09T00:03:26;16.30;99.90
7792;DHT22;3940;49.892;10.886;2022-09-09T00:06:24;16.30;99.90
7792;DHT22;3940;49.892;10.886;2022-09-09T00:09:15;16.20;99.90
7792;DHT22;3940;49.892;10.886;2022-09-09T00:12:12;16.10;99.90
7792;DHT22;3940;49.892;10.886;2022-09-09T00:15:02;16.20;99.90
7792;DHT22;3940;49.892;10.886;2022-09-09T00:17:56;16.50;99.90
7792;DHT22;3940;49.892;10.886;2022-09-09T00:20:53;16.70;99.90
7792;DHT22;3940;49.892;10.886;2022-09-09T00:23:49;16.60;99.90
7792;DHT22;3940;49.892;10.886;2022-09-09T00:26:48;16.60;99.90
7792;DHT22;3940;49.892;10.886;2022-09-09T00:29:43;16.40;99.90
7792;DHT22;3940;49.892;10.886;2022-09-09T00:32:30;16.60;99.90
7792;DHT22;3940;49.892;10.886;2022-09-09T00:35:24;16.60;99.90
7792;DHT22;3940;49.892;10.886;2022-09-09T00:38:15;16.60;99.90
7792;DHT22;3940;49.892;10.886;2022-09-09T00:41:14;16.60;99.90
7792;DHT22;3940;49.892;10.886;2022-09-09T00:44:30;16.70;99.90
7792;DHT22;3940;49.892;10.886;2022-09-09T00:47:46;16.90;99.90
7792;DHT22;3940;49.892;10.886;2022-09-09T00:50:43;16.70;99.90
7792;DHT22;3940;49.892;10.886;2022-09-09T00:54:03;16.80;99.90
7792;DHT22;3940;49.892;10.886;2022-09-09T00:57:04;16.70;99.90
7792;DHT22;3940;49.892;10.886;2022-09-09T00:59:59;16.40;99.90
7792;DHT22;3940;49.892;10.886;2022-09-09T01:03:02;16.30;99.90
7792;DHT22;3940;49.892;10.886;2022-09-09T01:06:16;16.40;99.90
7792;DHT22;3940;49.892;10.886;2022-09-09T01:09:24;16.40;99.90
7792;DHT22;3940;49.892;10.886;2022-09-09T01:12:24;16.30;99.90
7792;DHT22;3940;49.892;10.886;2022-09-09T01:15:14;16.20;99.90
7792;DHT22;3940;49.892;10.886;2022-09-09T01:18:07;16.10;99.90
7792;DHT22;3940;49.892;10.886;2022-09-09T01:24:29;16.00;99.90
7792;DHT22;3940;49.892;10.886;2022-09-09T01:27:17;16.20;99.90
7792;DHT22;3940;49.892;10.886;2022-09-09T01:30:08;16.40;99.90
7792;DHT22;3940;49.892;10.886;2022-09-09T01:32:57;16.40;99.90
7792;DHT22;3940;49.892;10.886;2022-09-09T01:35:59;16.20;99.90
7792;DHT22;3940;49.892;10.886;2022-09-09T01:38:45;15.80;99.90
7792;DHT22;3940;49.892;10.886;2022-09-09T01:41:30;15.80;99.90
7792;DHT22;3940;49.892;10.886;2022-09-09T01:44:15;15.80;99.90
7792;DHT22;3940;49.892;10.886;2022-09-09T01:47:03;15.60;99.90
7792;DHT22;3940;49.892;10.886;2022-09-09T01:49:47;15.80;99.90
7792;DHT22;3940;49.892;10.886;2022-09-09T01:52:36;15.80;99.90
7792;DHT22;3940;49.892;10.886;2022-09-09T01:55:30;15.70;99.90
7792;DHT22;3940;49.892;10.886;2022-09-09T02:01:57;15.50;99.90
7792;DHT22;3940;49.892;10.886;2022-09-09T02:04:49;15.70;99.90
7792;DHT22;3940;49.892;10.886;2022-09-09T02:07:42;15.80;99.90
7792;DHT22;3940;49.892;10.886;2022-09-09T02:10:45;16.20;99.90
7792;DHT22;3940;49.892;10.886;2022-09-09T02:13:37;16.10;99.90
7792;DHT22;3940;49.892;10.886;2022-09-09T02:16:42;16.10;99.90
7792;DHT22;3940;49.892;10.886;2022-09-09T02:19:32;16.10;99.90
7792;DHT22;3940;49.892;10.886;2022-09-09T02:22:22;16.20;99.90
7792;DHT22;3940;49.892;10.886;2022-09-09T02:25:12;16.10;99.90
7792;DHT22;3940;49.892;10.886;2022-09-09T02:28:06;16.20;99.90
7792;DHT22;3940;49.892;10.886;2022-09-09T02:31:17;16.30;99.90
7792;DHT22;3940;49.892;10.886;2022-09-09T02:34:03;16.10;99.90
7792;DHT22;3940;49.892;10.886;2022-09-09T02:36:50;16.20;99.90
7792;DHT22;3940;49.892;10.886;2022-09-09T02:39:37;16.20;99.90
7792;DHT22;3940;49.892;10.886;2022-09-09T02:42:23;16.20;99.90
7792;DHT22;3940;49.892;10.886;2022-09-09T02:45:11;16.40;99.90
7792;DHT22;3940;49.892;10.886;2022-09-09T02:48:18;16.50;99.90
7792;DHT22;3940;49.892;10.886;2022-09-09T02:51:13;16.00;99.90
7792;DHT22;3940;49.892;10.886;2022-09-09T02:54:20;15.80;99.90
7792;DHT22;3940;49.892;10.886;2022-09-09T02:57:19;16.00;99.90
7792;DHT22;3940;49.892;10.886;2022-09-09T03:00:08;16.20;99.90
7792;DHT22;3940;49.892;10.886;2022-09-09T03:02:56;16.20;99.90
7792;DHT22;3940;49.892;10.886;2022-09-09T03:05:43;16.10;99.90
7792;DHT22;3940;49.892;10.886;2022-09-09T03:08:54;16.10;99.90
7792;DHT22;3940;49.892;10.886;2022-09-09T03:12:02;16.00;99.90
7792;DHT22;3940;49.892;10.886;2022-09-09T03:14:51;15.90;99.90
7792;DHT22;3940;49.892;10.886;2022-09-09T03:18:00;16.00;99.90
7792;DHT22;3940;49.892;10.886;2022-09-09T03:20:46;16.00;99.90
7792;DHT22;3940;49.892;10.886;2022-09-09T03:23:34;15.60;99.90
7792;DHT22;3940;49.892;10.886;2022-09-09T03:26:22;15.70;99.90
7792;DHT22;3940;49.892;10.886;2022-09-09T03:29:09;15.70;99.90
7792;DHT22;3940;49.892;10.886;2022-09-09T03:31:54;15.70;99.90
7792;DHT22;3940;49.892;10.886;2022-09-09T03:34:41;15.60;99.90
7792;DHT22;3940;49.892;10.886;2022-09-09T03:37:25;15.50;99.90
7792;DHT22;3940;49.892;10.886;2022-09-09T03:40:10;15.70;99.90
7792;DHT22;3940;49.892;10.886;2022-09-09T03:42:55;15.90;99.90
7792;DHT22;3940;49.892;10.886;2022-09-09T03:45:46;15.80;99.90
7792;DHT22;3940;49.892;10.886;2022-09-09T03:48:31;15.60;99.90
7792;DHT22;3940;49.892;10.886;2022-09-09T03:51:16;15.80;99.90
7792;DHT22;3940;49.892;10.886;2022-09-09T03:54:01;15.70;99.90
7792;DHT22;3940;49.892;10.886;2022-09-09T03:56:46;15.70;99.90
7792;DHT22;3940;49.892;10.886;2022-09-09T03:59:33;15.90;99.90
7792;DHT22;3940;49.892;10.886;2022-09-09T04:02:20;15.70;99.90
7792;DHT22;3940;49.892;10.886;2022-09-09T04:05:09;15.60;99.90
7792;DHT22;3940;49.892;10.886;2022-09-09T04:07:55;15.70;99.90
7792;DHT22;3940;49.892;10.886;2022-09-09T04:10:39;15.70;99.90
7792;DHT22;3940;49.892;10.886;2022-09-09T04:13:27;15.90;99.90
7792;DHT22;3940;49.892;10.886;2022-09-09T04:16:16;15.90;99.90
7792;DHT22;3940;49.892;10.886;2022-09-09T04:19:05;15.90;99.90
7792;DHT22;3940;49.892;10.886;2022-09-09T04:21:52;16.10;99.90
7792;DHT22;3940;49.892;10.886;2022-09-09T04:24:37;16.20;99.90
7792;DHT22;3940;49.892;10.886;2022-09-09T04:27:21;16.10;99.90
7792;DHT22;3940;49.892;10.886;2022-09-09T04:30:07;16.10;99.90
7792;DHT22;3940;49.892;10.886;2022-09-09T04:32:51;16.00;99.90
7792;DHT22;3940;49.892;10.886;2022-09-09T04:35:36;16.00;99.90
7792;DHT22;3940;49.892;10.886;2022-09-09T04:38:42;16.10;99.90
7792;DHT22;3940;49.892;10.886;2022-09-09T04:41:31;16.20;99.90
7792;DHT22;3940;49.892;10.886;2022-09-09T04:44:37;16.10;99.90
7792;DHT22;3940;49.892;10.886;2022-09-09T04:47:21;15.90;99.90
7792;DHT22;3940;49.892;10.886;2022-09-09T04:50:08;15.70;99.90
7792;DHT22;3940;49.892;10.886;2022-09-09T04:52:54;15.90;99.90
7792;DHT22;3940;49.892;10.886;2022-09-09T04:55:40;16.00;99.90
7792;DHT22;3940;49.892;10.886;2022-09-09T04:58:28;16.10;99.90
7792;DHT22;3940;49.892;10.886;2022-09-09T05:01:15;16.20;99.90
7792;DHT22;3940;49.892;10.886;2022-09-09T05:04:03;16.30;99.90
7792;DHT22;3940;49.892;10.886;2022-09-09T05:06:50;16.40;99.90
7792;DHT22;3940;49.892;10.886;2022-09-09T05:09:35;16.40;99.90
7792;DHT22;3940;49.892;10.886;2022-09-09T05:12:25;16.40;99.90
7792;DHT22;3940;49.892;10.886;2022-09-09T05:15:11;16.30;99.90
7792;DHT22;3940;49.892;10.886;2022-09-09T05:17:59;16.40;99.90
7792;DHT22;3940;49.892;10.886;2022-09-09T05:20:45;16.40;99.90
7792;DHT22;3940;49.892;10.886;2022-09-09T05:23:30;16.60;99.90
7792;DHT22;3940;49.892;10.886;2022-09-09T05:26:17;16.50;99.90
7792;DHT22;3940;49.892;10.886;2022-09-09T05:29:02;16.60;99.90
7792;DHT22;3940;49.892;10.886;2022-09-09T05:31:47;16.60;99.90
7792;DHT22;3940;49.892;10.886;2022-09-09T05:34:31;16.70;99.90
7792;DHT22;3940;49.892;10.886;2022-09-09T05:37:16;16.80;99.90
7792;DHT22;3940;49.892;10.886;2022-09-09T05:40:01;16.80;99.90
7792;DHT22;3940;49.892;10.886;2022-09-09T05:42:46;16.70;99.90
7792;DHT22;3940;49.892;10.886;2022-09-09T05:45:32;16.70;99.90
7792;DHT22;3940;49.892;10.886;2022-09-09T05:48:19;16.60;99.90
7792;DHT22;3940;49.892;10.886;2022-09-09T05:51:05;16.80;99.90
7792;DHT22;3940;49.892;10.886;2022-09-09T05:53:53;16.80;99.90
7792;DHT22;3940;49.892;10.886;2022-09-09T05:56:43;16.60;99.90
7792;DHT22;3940;49.892;10.886;2022-09-09T05:59:28;16.60;99.90
7792;DHT22;3940;49.892;10.886;2022-09-09T06:02:13;16.60;99.90
7792;DHT22;3940;49.892;10.886;2022-09-09T06:04:58;16.70;99.90
7792;DHT22;3940;49.892;10.886;2022-09-09T06:07:42;16.70;99.90
7792;DHT22;3940;49.892;10.886;2022-09-09T06:10:30;16.70;99.90
7792;DHT22;3940;49.892;10.886;2022-09-09T06:13:16;16.70;99.90
7792;DHT22;3940;49.892;10.886;2022-09-09T06:16:22;16.60;99.90
7792;DHT22;3940;49.892;10.886;2022-09-09T06:19:28;16.80;99.90
7792;DHT22;3940;49.892;10.886;2022-09-09T06:22:12;16.60;99.90
7792;DHT22;3940;49.892;10.886;2022-09-09T06:24:58;16.70;99.90
7792;DHT22;3940;49.892;10.886;2022-09-09T06:27:48;16.90;99.90
7792;DHT22;3940;49.892;10.886;2022-09-09T06:30:36;16.90;99.90
7792;DHT22;3940;49.892;10.886;2022-09-09T06:33:23;17.00;99.90
7792;DHT22;3940;49.892;10.886;2022-09-09T06:36:12;17.20;99.90
7792;DHT22;3940;49.892;10.886;2022-09-09T06:38:57;16.90;99.90
7792;DHT22;3940;49.892;10.886;2022-09-09T06:41:42;17.00;99.90
7792;DHT22;3940;49.892;10.886;2022-09-09T06:44:27;17.20;99.90
7792;DHT22;3940;49.892;10.886;2022-09-09T06:47:11;17.20;99.90
7792;DHT22;3940;49.892;10.886;2022-09-09T06:49:55;17.00;99.90
7792;DHT22;3940;49.892;10.886;2022-09-09T06:52:40;17.10;99.90
7792;DHT22;3940;49.892;10.886;2022-09-09T06:55:27;17.10;99.90
7792;DHT22;3940;49.892;10.886;2022-09-09T06:58:12;17.30;99.90
7792;DHT22;3940;49.892;10.886;2022-09-09T07:01:06;17.30;99.90
7792;DHT22;3940;49.892;10.886;2022-09-09T07:04:12;17.20;99.90
7792;DHT22;3940;49.892;10.886;2022-09-09T07:06:59;17.20;99.90
7792;DHT22;3940;49.892;10.886;2022-09-09T07:10:06;17.30;99.90
7792;DHT22;3940;49.892;10.886;2022-09-09T07:13:13;17.60;99.90
7792;DHT22;3940;49.892;10.886;2022-09-09T07:16:08;17.90;99.90
7792;DHT22;3940;49.892;10.886;2022-09-09T07:18:54;17.90;99.90
7792;DHT22;3940;49.892;10.886;2022-09-09T07:21:43;17.90;99.90
7792;DHT22;3940;49.892;10.886;2022-09-09T07:24:29;17.90;99.90
7792;DHT22;3940;49.892;10.886;2022-09-09T07:27:15;18.00;99.90
7792;DHT22;3940;49.892;10.886;2022-09-09T07:29:59;18.30;99.90
7792;DHT22;3940;49.892;10.886;2022-09-09T07:33:07;18.60;99.90
7792;DHT22;3940;49.892;10.886;2022-09-09T07:36:01;18.50;99.90
7792;DHT22;3940;49.892;10.886;2022-09-09T07:38:52;18.40;99.90
7792;DHT22;3940;49.892;10.886;2022-09-09T07:41:44;18.70;99.90
7792;DHT22;3940;49.892;10.886;2022-09-09T07:44:29;18.80;99.90
7792;DHT22;3940;49.892;10.886;2022-09-09T07:47:14;18.80;99.90
7792;DHT22;3940;49.892;10.886;2022-09-09T07:50:04;18.70;99.90
7792;DHT22;3940;49.892;10.886;2022-09-09T07:52:50;18.80;99.90
7792;DHT22;3940;49.892;10.886;2022-09-09T07:55:36;19.10;99.90
7792;DHT22;3940;49.892;10.886;2022-09-09T07:58:28;18.90;99.90
7792;DHT22;3940;49.892;10.886;2022-09-09T08:01:17;18.90;99.90
7792;DHT22;3940;49.892;10.886;2022-09-09T08:04:04;19.10;99.90
7792;DHT22;3940;49.892;10.886;2022-09-09T08:06:57;19.30;99.90
7792;DHT22;3940;49.892;10.886;2022-09-09T08:09:44;19.10;99.90
7792;DHT22;3940;49.892;10.886;2022-09-09T08:12:30;19.30;99.90
7792;DHT22;3940;49.892;10.886;2022-09-09T08:15:16;19.10;99.90
7792;DHT22;3940;49.892;10.886;2022-09-09T08:18:03;19.30;99.90
7792;DHT22;3940;49.892;10.886;2022-09-09T08:20:49;19.20;99.90
7792;DHT22;3940;49.892;10.886;2022-09-09T08:23:39;19.20;99.90
7792;DHT22;3940;49.892;10.886;2022-09-09T08:26:31;19.20;99.90
7792;DHT22;3940;49.892;10.886;2022-09-09T08:29:35;19.40;99.90
7792;DHT22;3940;49.892;10.886;2022-09-09T08:32:24;19.40;99.90
7792;DHT22;3940;49.892;10.886;2022-09-09T08:35:09;19.40;99.90
7792;DHT22;3940;49.892;10.886;2022-09-09T08:37:55;19.50;99.90
7792;DHT22;3940;49.892;10.886;2022-09-09T08:40:41;19.90;99.90
7792;DHT22;3940;49.892;10.886;2022-09-09T08:43:29;19.80;99.90
7792;DHT22;3940;49.892;10.886;2022-09-09T08:46:32;19.40;99.90
7792;DHT22;3940;49.892;10.886;2022-09-09T08:52:55;19.40;99.90
7792;DHT22;3940;49.892;10.886;2022-09-09T08:55:59;19.40;99.90
7792;DHT22;3940;49.892;10.886;2022-09-09T08:58:50;19.90;99.90
7792;DHT22;3940;49.892;10.886;2022-09-09T09:05:21;20.40;99.90
7792;DHT22;3940;49.892;10.886;2022-09-09T09:08:26;20.30;99.90
7792;DHT22;3940;49.892;10.886;2022-09-09T09:11:14;20.60;99.90
7792;DHT22;3940;49.892;10.886;2022-09-09T09:14:03;20.70;99.90
7792;DHT22;3940;49.892;10.886;2022-09-09T09:17:03;21.10;99.90
7792;DHT22;3940;49.892;10.886;2022-09-09T09:19:53;21.00;99.90
7792;DHT22;3940;49.892;10.886;2022-09-09T09:22:51;21.10;99.90
7792;DHT22;3940;49.892;10.886;2022-09-09T09:25:41;21.10;99.90
7792;DHT22;3940;49.892;10.886;2022-09-09T09:28:31;20.70;99.90
7792;DHT22;3940;49.892;10.886;2022-09-09T09:31:20;20.60;99.90
7792;DHT22;3940;49.892;10.886;2022-09-09T09:34:04;20.60;99.90
7792;DHT22;3940;49.892;10.886;2022-09-09T09:36:54;20.60;99.90
7792;DHT22;3940;49.892;10.886;2022-09-09T09:39:44;20.80;99.90
7792;DHT22;3940;49.892;10.886;2022-09-09T09:42:28;21.00;99.90
7792;DHT22;3940;49.892;10.886;2022-09-09T09:45:42;20.90;99.90
7792;DHT22;3940;49.892;10.886;2022-09-09T09:48:30;20.90;99.90
7792;DHT22;3940;49.892;10.886;2022-09-09T09:51:17;20.90;99.90
7792;DHT22;3940;49.892;10.886;2022-09-09T09:54:26;21.50;99.90
7792;DHT22;3940;49.892;10.886;2022-09-09T09:57:14;22.00;99.90
7792;DHT22;3940;49.892;10.886;2022-09-09T10:00:13;21.90;99.90
7792;DHT22;3940;49.892;10.886;2022-09-09T10:03:22;21.70;99.90
7792;DHT22;3940;49.892;10.886;2022-09-09T10:06:12;22.30;99.90
7792;DHT22;3940;49.892;10.886;2022-09-09T10:08:59;21.70;99.90
7792;DHT22;3940;49.892;10.886;2022-09-09T10:12:11;21.80;99.90
7792;DHT22;3940;49.892;10.886;2022-09-09T10:25:03;22.60;99.90
7792;DHT22;3940;49.892;10.886;2022-09-09T10:31:31;22.90;99.90
7792;DHT22;3940;49.892;10.886;2022-09-09T10:34:47;22.50;99.90
7792;DHT22;3940;49.892;10.886;2022-09-09T10:41:14;22.80;99.90
7792;DHT22;3940;49.892;10.886;2022-09-09T10:47:43;23.30;99.90
7792;DHT22;3940;49.892;10.886;2022-09-09T10:50:43;24.10;99.90
7792;DHT22;3940;49.892;10.886;2022-09-09T10:53:53;24.20;99.90
7792;DHT22;3940;49.892;10.886;2022-09-09T10:56:48;24.10;99.90
7792;DHT22;3940;49.892;10.886;2022-09-09T10:59:45;23.90;99.90
7792;DHT22;3940;49.892;10.886;2022-09-09T11:02:34;23.70;99.90
7792;DHT22;3940;49.892;10.886;2022-09-09T11:05:31;24.50;99.90
7792;DHT22;3940;49.892;10.886;2022-09-09T11:08:26;24.80;99.90
7792;DHT22;3940;49.892;10.886;2022-09-09T11:11:25;25.40;99.90
7792;DHT22;3940;49.892;10.886;2022-09-09T11:14:24;25.00;99.90
7792;DHT22;3940;49.892;10.886;2022-09-09T11:17:15;24.50;99.90
7792;DHT22;3940;49.892;10.886;2022-09-09T11:20:25;24.90;99.90
7792;DHT22;3940;49.892;10.886;2022-09-09T11:23:17;26.10;99.90
7792;DHT22;3940;49.892;10.886;2022-09-09T11:26:17;26.90;99.50
7792;DHT22;3940;49.892;10.886;2022-09-09T11:29:30;26.10;96.60
7792;DHT22;3940;49.892;10.886;2022-09-09T11:35:56;27.60;94.00
7792;DHT22;3940;49.892;10.886;2022-09-09T11:38:46;28.90;90.40
7792;DHT22;3940;49.892;10.886;2022-09-09T11:41:35;29.70;84.70
7792;DHT22;3940;49.892;10.886;2022-09-09T11:44:28;30.20;83.60
7792;DHT22;3940;49.892;10.886;2022-09-09T11:47:27;30.20;81.10
7792;DHT22;3940;49.892;10.886;2022-09-09T11:50:35;30.40;77.50
7792;DHT22;3940;49.892;10.886;2022-09-09T11:53:21;30.40;72.80
7792;DHT22;3940;49.892;10.886;2022-09-09T11:56:12;28.90;72.90
7792;DHT22;3940;49.892;10.886;2022-09-09T11:59:01;28.20;73.50
7792;DHT22;3940;49.892;10.886;2022-09-09T12:01:54;27.20;74.10
7792;DHT22;3940;49.892;10.886;2022-09-09T12:05:17;26.60;78.90
7792;DHT22;3940;49.892;10.886;2022-09-09T12:07:56;26.00;83.70
7792;DHT22;3940;49.892;10.886;2022-09-09T12:10:53;25.50;88.10
7792;DHT22;3940;49.892;10.886;2022-09-09T12:13:38;25.30;90.20
7792;DHT22;3940;49.892;10.886;2022-09-09T12:16:32;25.20;84.90
7792;DHT22;3940;49.892;10.886;2022-09-09T12:19:21;25.70;83.30
7792;DHT22;3940;49.892;10.886;2022-09-09T12:22:30;26.60;82.00
7792;DHT22;3940;49.892;10.886;2022-09-09T12:25:46;26.00;79.30
7792;DHT22;3940;49.892;10.886;2022-09-09T12:32:04;24.30;80.80
7792;DHT22;3940;49.892;10.886;2022-09-09T12:34:54;23.50;85.10
7792;DHT22;3940;49.892;10.886;2022-09-09T12:37:51;22.80;85.10
7792;DHT22;3940;49.892;10.886;2022-09-09T12:40:38;22.30;88.50
7792;DHT22;3940;49.892;10.886;2022-09-09T12:43:26;22.00;89.50
7792;DHT22;3940;49.892;10.886;2022-09-09T12:46:20;21.60;90.80
7792;DHT22;3940;49.892;10.886;2022-09-09T12:49:05;21.80;90.40
7792;DHT22;3940;49.892;10.886;2022-09-09T12:52:13;22.00;91.20
7792;DHT22;3940;49.892;10.886;2022-09-09T12:55:02;23.30;91.20
7792;DHT22;3940;49.892;10.886;2022-09-09T12:57:48;23.80;90.90
7792;DHT22;3940;49.892;10.886;2022-09-09T13:00:34;23.80;90.10
7792;DHT22;3940;49.892;10.886;2022-09-09T13:03:20;23.50;90.50
7792;DHT22;3940;49.892;10.886;2022-09-09T13:06:18;23.10;91.70
7792;DHT22;3940;49.892;10.886;2022-09-09T13:09:04;22.80;90.60
7792;DHT22;3940;49.892;10.886;2022-09-09T13:11:52;22.60;92.00
7792;DHT22;3940;49.892;10.886;2022-09-09T13:14:39;22.60;92.10
7792;DHT22;3940;49.892;10.886;2022-09-09T13:17:27;22.60;91.90
7792;DHT22;3940;49.892;10.886;2022-09-09T13:20:17;22.70;91.50
7792;DHT22;3940;49.892;10.886;2022-09-09T13:23:02;23.20;91.50
7792;DHT22;3940;49.892;10.886;2022-09-09T13:26:02;24.60;90.00
7792;DHT22;3940;49.892;10.886;2022-09-09T13:28:48;25.80;84.30
7792;DHT22;3940;49.892;10.886;2022-09-09T13:31:36;26.60;86.20
7792;DHT22;3940;49.892;10.886;2022-09-09T13:34:30;27.60;76.70
7792;DHT22;3940;49.892;10.886;2022-09-09T13:37:23;28.70;72.70
7792;DHT22;3940;49.892;10.886;2022-09-09T13:40:18;28.10;70.70
7792;DHT22;3940;49.892;10.886;2022-09-09T13:43:03;27.90;69.80
7792;DHT22;3940;49.892;10.886;2022-09-09T13:45:54;27.60;69.40
7792;DHT22;3940;49.892;10.886;2022-09-09T13:48:40;28.60;68.10
7792;DHT22;3940;49.892;10.886;2022-09-09T13:51:43;28.70;67.90
7792;DHT22;3940;49.892;10.886;2022-09-09T13:54:31;26.60;69.60
7792;DHT22;3940;49.892;10.886;2022-09-09T13:57:18;25.90;73.90
7792;DHT22;3940;49.892;10.886;2022-09-09T14:00:03;25.80;75.10
7792;DHT22;3940;49.892;10.886;2022-09-09T14:02:48;25.00;75.40
7792;DHT22;3940;49.892;10.886;2022-09-09T14:05:33;25.10;76.70
7792;DHT22;3940;49.892;10.886;2022-09-09T14:08:24;26.30;75.30
7792;DHT22;3940;49.892;10.886;2022-09-09T14:11:14;25.70;74.20
7792;DHT22;3940;49.892;10.886;2022-09-09T14:13:59;25.10;77.20
7792;DHT22;3940;49.892;10.886;2022-09-09T14:16:45;25.90;77.30
7792;DHT22;3940;49.892;10.886;2022-09-09T14:19:30;27.50;69.80
7792;DHT22;3940;49.892;10.886;2022-09-09T14:22:15;28.70;65.20
7792;DHT22;3940;49.892;10.886;2022-09-09T14:24:59;26.60;67.80
7792;DHT22;3940;49.892;10.886;2022-09-09T14:27:46;25.60;73.70
7792;DHT22;3940;49.892;10.886;2022-09-09T14:30:54;24.80;77.30
7792;DHT22;3940;49.892;10.886;2022-09-09T14:33:41;24.20;80.50
7792;DHT22;3940;49.892;10.886;2022-09-09T14:36:26;23.80;82.70
7792;DHT22;3940;49.892;10.886;2022-09-09T14:39:12;23.90;84.80
7792;DHT22;3940;49.892;10.886;2022-09-09T14:41:58;24.20;83.80
7792;DHT22;3940;49.892;10.886;2022-09-09T14:44:43;24.50;88.30
7792;DHT22;3940;49.892;10.886;2022-09-09T14:47:31;24.20;89.70
7792;DHT22;3940;49.892;10.886;2022-09-09T14:50:19;24.40;90.20
7792;DHT22;3940;49.892;10.886;2022-09-09T14:53:08;24.10;90.90
7792;DHT22;3940;49.892;10.886;2022-09-09T14:56:08;23.90;90.80
7792;DHT22;3940;49.892;10.886;2022-09-09T14:59:02;23.80;92.60
7792;DHT22;3940;49.892;10.886;2022-09-09T15:02:12;23.80;92.30
7792;DHT22;3940;49.892;10.886;2022-09-09T15:04:58;23.70;87.20
7792;DHT22;3940;49.892;10.886;2022-09-09T15:07:42;23.70;85.50
7792;DHT22;3940;49.892;10.886;2022-09-09T15:10:27;23.80;85.00
7792;DHT22;3940;49.892;10.886;2022-09-09T15:13:15;23.90;84.90
7792;DHT22;3940;49.892;10.886;2022-09-09T15:16:06;23.90;86.20
7792;DHT22;3940;49.892;10.886;2022-09-09T15:19:10;24.00;86.00
7792;DHT22;3940;49.892;10.886;2022-09-09T15:21:57;23.90;87.50
7792;DHT22;3940;49.892;10.886;2022-09-09T15:24:48;23.80;88.90
7792;DHT22;3940;49.892;10.886;2022-09-09T15:27:32;23.70;89.80
7792;DHT22;3940;49.892;10.886;2022-09-09T15:30:18;23.70;90.30
7792;DHT22;3940;49.892;10.886;2022-09-09T15:33:08;23.80;91.00
7792;DHT22;3940;49.892;10.886;2022-09-09T15:35:53;23.80;90.50
7792;DHT22;3940;49.892;10.886;2022-09-09T15:38:38;23.70;90.20
7792;DHT22;3940;49.892;10.886;2022-09-09T15:41:27;23.70;90.90
7792;DHT22;3940;49.892;10.886;2022-09-09T15:44:24;23.80;90.40
7792;DHT22;3940;49.892;10.886;2022-09-09T15:47:12;23.70;91.40
7792;DHT22;3940;49.892;10.886;2022-09-09T15:50:00;23.70;88.30
7792;DHT22;3940;49.892;10.886;2022-09-09T15:53:06;23.60;89.60
7792;DHT22;3940;49.892;10.886;2022-09-09T15:55:56;23.40;89.40
7792;DHT22;3940;49.892;10.886;2022-09-09T15:58:41;23.40;87.70
7792;DHT22;3940;49.892;10.886;2022-09-09T16:01:27;23.40;88.10
7792;DHT22;3940;49.892;10.886;2022-09-09T16:04:12;23.30;88.10
7792;DHT22;3940;49.892;10.886;2022-09-09T16:07:02;23.20;87.90
7792;DHT22;3940;49.892;10.886;2022-09-09T16:09:47;23.00;87.60
7792;DHT22;3940;49.892;10.886;2022-09-09T16:12:31;23.00;88.20
7792;DHT22;3940;49.892;10.886;2022-09-09T16:15:16;23.00;89.90
7792;DHT22;3940;49.892;10.886;2022-09-09T16:18:01;22.90;89.10
7792;DHT22;3940;49.892;10.886;2022-09-09T16:20:54;23.40;89.60
7792;DHT22;3940;49.892;10.886;2022-09-09T16:23:39;23.70;88.10
7792;DHT22;3940;49.892;10.886;2022-09-09T16:26:23;23.60;88.80
7792;DHT22;3940;49.892;10.886;2022-09-09T16:29:08;23.40;88.00
7792;DHT22;3940;49.892;10.886;2022-09-09T16:31:53;23.10;88.90
7792;DHT22;3940;49.892;10.886;2022-09-09T16:34:38;23.00;90.30
7792;DHT22;3940;49.892;10.886;2022-09-09T16:37:22;22.90;90.90
7792;DHT22;3940;49.892;10.886;2022-09-09T16:40:07;23.00;91.40
7792;DHT22;3940;49.892;10.886;2022-09-09T16:42:52;23.10;90.70
7792;DHT22;3940;49.892;10.886;2022-09-09T16:45:45;23.10;91.00
7792;DHT22;3940;49.892;10.886;2022-09-09T16:48:33;23.00;92.10
7792;DHT22;3940;49.892;10.886;2022-09-09T16:51:22;23.00;91.20
7792;DHT22;3940;49.892;10.886;2022-09-09T16:54:09;22.80;93.10
7792;DHT22;3940;49.892;10.886;2022-09-09T16:56:54;22.40;94.40
7792;DHT22;3940;49.892;10.886;2022-09-09T16:59:38;22.30;96.50
7792;DHT22;3940;49.892;10.886;2022-09-09T17:02:23;22.10;96.90
7792;DHT22;3940;49.892;10.886;2022-09-09T17:05:08;22.00;97.60
7792;DHT22;3940;49.892;10.886;2022-09-09T17:07:54;21.90;98.70
7792;DHT22;3940;49.892;10.886;2022-09-09T17:10:41;21.80;99.20
7792;DHT22;3940;49.892;10.886;2022-09-09T17:13:26;21.60;99.90
7792;DHT22;3940;49.892;10.886;2022-09-09T17:16:12;21.60;99.90
7792;DHT22;3940;49.892;10.886;2022-09-09T17:18:58;21.50;99.90
7792;DHT22;3940;49.892;10.886;2022-09-09T17:21:43;21.40;99.90
7792;DHT22;3940;49.892;10.886;2022-09-09T17:24:30;21.40;99.90
7792;DHT22;3940;49.892;10.886;2022-09-09T17:27:16;21.40;99.90
7792;DHT22;3940;49.892;10.886;2022-09-09T17:30:00;21.40;99.90
7792;DHT22;3940;49.892;10.886;2022-09-09T17:32:46;21.10;99.90
7792;DHT22;3940;49.892;10.886;2022-09-09T17:35:31;21.00;99.90
7792;DHT22;3940;49.892;10.886;2022-09-09T17:38:15;21.00;99.90
7792;DHT22;3940;49.892;10.886;2022-09-09T17:41:04;20.90;99.90
7792;DHT22;3940;49.892;10.886;2022-09-09T17:43:49;20.70;99.90
7792;DHT22;3940;49.892;10.886;2022-09-09T17:46:36;20.70;99.90
7792;DHT22;3940;49.892;10.886;2022-09-09T17:49:21;20.70;99.90
7792;DHT22;3940;49.892;10.886;2022-09-09T17:52:05;20.60;99.90
7792;DHT22;3940;49.892;10.886;2022-09-09T17:54:50;20.60;99.90
7792;DHT22;3940;49.892;10.886;2022-09-09T17:57:36;20.80;99.90
7792;DHT22;3940;49.892;10.886;2022-09-09T18:00:20;20.80;99.90
7792;DHT22;3940;49.892;10.886;2022-09-09T18:03:05;20.90;99.90
7792;DHT22;3940;49.892;10.886;2022-09-09T18:05:49;20.90;99.90
7792;DHT22;3940;49.892;10.886;2022-09-09T18:08:36;20.60;99.90
7792;DHT22;3940;49.892;10.886;2022-09-09T18:11:23;20.60;99.90
7792;DHT22;3940;49.892;10.886;2022-09-09T18:14:11;20.60;99.90
7792;DHT22;3940;49.892;10.886;2022-09-09T18:16:58;20.70;99.90
7792;DHT22;3940;49.892;10.886;2022-09-09T18:19:42;20.60;99.90
7792;DHT22;3940;49.892;10.886;2022-09-09T18:22:27;20.70;99.90
7792;DHT22;3940;49.892;10.886;2022-09-09T18:25:14;20.70;99.90
7792;DHT22;3940;49.892;10.886;2022-09-09T18:27:59;20.60;99.90
7792;DHT22;3940;49.892;10.886;2022-09-09T18:30:44;20.40;99.90
7792;DHT22;3940;49.892;10.886;2022-09-09T18:33:29;20.30;99.90
7792;DHT22;3940;49.892;10.886;2022-09-09T18:36:16;20.20;99.90
7792;DHT22;3940;49.892;10.886;2022-09-09T18:39:03;20.20;99.90
7792;DHT22;3940;49.892;10.886;2022-09-09T18:41:49;20.10;99.90
7792;DHT22;3940;49.892;10.886;2022-09-09T18:44:36;20.00;99.90
7792;DHT22;3940;49.892;10.886;2022-09-09T18:47:20;20.00;99.90
7792;DHT22;3940;49.892;10.886;2022-09-09T18:50:08;19.90;99.90
7792;DHT22;3940;49.892;10.886;2022-09-09T18:52:52;19.90;99.90
7792;DHT22;3940;49.892;10.886;2022-09-09T18:55:37;19.80;99.90